createdAt,value
2023-01-02T00:01:00.281Z,4.67
2023-01-02T00:04:04.088Z,4.97
2023-01-02T00:07:07.832Z,4.73
2023-01-02T00:10:11.670Z,4.93
2023-01-02T00:13:15.867Z,4.40
2023-01-02T00:16:20.969Z,4.53
2023-01-02T00:19:24.741Z,4.47
2023-01-02T00:22:28.610Z,3.90
2023-01-02T00:25:34.815Z,3.87
2023-01-02T00:28:39.876Z,3.50
2023-01-02T00:31:45.228Z,3.93
2023-01-02T00:34:48.964Z,3.43
2023-01-02T00:37:54.021Z,3.10
2023-01-02T00:40:57.611Z,3.70
2023-01-02T00:44:01.310Z,3.30
2023-01-02T00:47:06.532Z,3.17
2023-01-02T00:50:10.393Z,3.23
2023-01-02T00:53:14.053Z,2.67
2023-01-02T00:56:17.628Z,3.00
2023-01-02T00:59:21.314Z,3.67
2023-01-02T01:02:26.384Z,2.83
2023-01-02T01:05:30.907Z,3.47
2023-01-02T01:08:35.819Z,3.27
2023-01-02T01:11:39.460Z,3.60
2023-01-02T01:14:43.061Z,3.37
2023-01-02T01:17:48.142Z,3.23
2023-01-02T01:20:52.312Z,3.40
2023-01-02T01:23:57.062Z,3.50
2023-01-02T01:27:00.730Z,3.70
2023-01-02T01:30:04.965Z,3.80
2023-01-02T01:33:10.064Z,3.43
2023-01-02T01:36:17.132Z,3.43
2023-01-02T01:39:20.689Z,3.67
2023-01-02T01:42:24.341Z,3.50
2023-01-02T01:45:45.079Z,3.47
2023-01-02T01:48:59.109Z,3.90
2023-01-02T01:52:07.555Z,3.83
2023-01-02T01:55:18.295Z,4.03
2023-01-02T01:58:28.573Z,3.43
2023-01-02T02:01:33.481Z,3.70
2023-01-02T02:04:39.516Z,3.37
2023-01-02T02:07:53.700Z,3.93
2023-01-02T02:11:00.389Z,3.70
2023-01-02T02:14:04.058Z,4.13
2023-01-02T02:17:23.803Z,4.30
2023-01-02T02:20:51.252Z,3.87
2023-01-02T02:24:37.873Z,4.17
2023-01-02T02:28:08.427Z,4.00
2023-01-02T02:31:23.857Z,4.73
2023-01-02T02:34:35.963Z,4.17
2023-01-02T02:37:53.308Z,4.00
2023-01-02T02:41:07.173Z,4.27
2023-01-02T02:44:30.284Z,4.63
2023-01-02T02:47:44.358Z,4.30
2023-01-02T02:50:57.962Z,4.20
2023-01-02T02:54:07.406Z,4.30
2023-01-02T02:57:14.207Z,5.50
2023-01-02T03:00:23.347Z,4.70
2023-01-02T03:03:28.296Z,4.93
2023-01-02T03:06:51.637Z,4.67
2023-01-02T03:10:10.882Z,4.30
2023-01-02T03:13:26.867Z,5.03
2023-01-02T03:16:40.642Z,4.20
2023-01-02T03:19:53.781Z,4.87
2023-01-02T03:23:05.757Z,4.77
2023-01-02T03:26:09.711Z,4.57
2023-01-02T03:29:19.738Z,4.40
2023-01-02T03:32:28.912Z,4.40
2023-01-02T03:35:39.069Z,4.87
2023-01-02T03:38:49.090Z,3.97
2023-01-02T03:41:59.016Z,4.17
2023-01-02T03:45:09.530Z,4.40
2023-01-02T03:48:26.416Z,4.67
2023-01-02T03:51:31.613Z,4.27
2023-01-02T03:54:35.543Z,4.20
2023-01-02T03:57:59.057Z,4.53
2023-01-02T04:01:13.930Z,4.90
2023-01-02T04:04:30.706Z,4.20
2023-01-02T04:07:47.023Z,4.30
2023-01-02T04:10:58.697Z,4.17
2023-01-02T04:14:11.626Z,4.80
2023-01-02T04:17:19.382Z,4.33
2023-01-02T04:20:30.231Z,4.30
2023-01-02T04:23:42.371Z,4.90
2023-01-02T04:26:51.388Z,4.20
2023-01-02T04:29:56.804Z,5.43
2023-01-02T04:33:07.833Z,4.47
2023-01-02T04:36:14.074Z,5.53
2023-01-02T04:39:23.688Z,5.10
2023-01-02T04:42:27.311Z,4.80
2023-01-02T04:45:30.952Z,4.63
2023-01-02T04:48:34.655Z,5.30
2023-01-02T04:51:38.265Z,5.00
2023-01-02T04:54:43.249Z,5.63
2023-01-02T04:57:46.990Z,5.67
2023-01-02T05:00:50.751Z,5.30
2023-01-02T05:03:54.377Z,4.80
2023-01-02T05:06:58.094Z,5.70
2023-01-02T05:10:03.060Z,5.33
2023-01-02T05:13:06.824Z,5.50
2023-01-02T05:16:11.587Z,5.03
2023-01-02T05:19:15.667Z,5.93
2023-01-02T05:22:37.126Z,6.00
2023-01-02T05:25:42.111Z,6.70
2023-01-02T05:29:02.062Z,5.73
2023-01-02T05:32:06.271Z,5.90
2023-01-02T05:35:10.954Z,6.03
2023-01-02T05:38:14.690Z,5.90
2023-01-02T05:41:21.282Z,6.00
2023-01-02T05:44:24.929Z,6.07
2023-01-02T05:47:28.686Z,5.90
2023-01-02T05:50:32.753Z,6.10
2023-01-02T05:53:37.170Z,5.97
2023-01-02T05:56:42.192Z,6.10
2023-01-02T05:59:45.747Z,7.10
2023-01-02T06:02:49.472Z,6.73
2023-01-02T06:05:53.146Z,6.50
2023-01-02T06:08:57.018Z,6.80
2023-01-02T06:12:02.029Z,6.23
2023-01-02T06:15:06.500Z,6.90
2023-01-02T06:18:10.106Z,5.70
2023-01-02T06:21:16.556Z,6.40
2023-01-02T06:24:20.131Z,6.80
2023-01-02T06:27:25.118Z,6.70
2023-01-02T06:30:28.726Z,5.73
2023-01-02T06:33:33.341Z,6.60
2023-01-02T06:36:36.992Z,6.40
2023-01-02T06:39:40.614Z,6.80
2023-01-02T06:42:46.431Z,7.03
2023-01-02T06:45:50.549Z,7.10
2023-01-02T06:48:54.323Z,7.10
2023-01-02T06:51:57.909Z,7.93
2023-01-02T06:55:01.703Z,7.20
2023-01-02T06:58:12.256Z,7.13
2023-01-02T07:01:21.182Z,6.20
2023-01-02T07:04:24.991Z,6.00
2023-01-02T07:07:29.565Z,6.67
2023-01-02T07:10:33.551Z,6.30
2023-01-02T07:13:39.312Z,6.70
2023-01-02T07:16:43.207Z,5.80
2023-01-02T07:19:53.100Z,6.33
2023-01-02T07:22:57.574Z,5.43
2023-01-02T07:26:02.993Z,5.53
2023-01-02T07:29:08.020Z,6.63
2023-01-02T07:32:11.770Z,5.90
2023-01-02T07:35:15.541Z,5.97
2023-01-02T07:38:21.027Z,5.57
2023-01-02T07:41:27.346Z,5.80
2023-01-02T07:44:32.466Z,5.77
2023-01-02T07:47:37.540Z,5.83
2023-01-02T07:50:41.140Z,6.00
2023-01-02T07:53:44.873Z,5.70
2023-01-02T07:56:48.476Z,5.30
2023-01-02T07:59:53.608Z,5.93
2023-01-02T08:02:57.443Z,5.73
2023-01-02T08:06:05.841Z,5.80
2023-01-02T08:09:09.875Z,5.53
2023-01-02T08:12:13.827Z,6.17
2023-01-02T08:15:19.089Z,5.60
2023-01-02T08:18:22.711Z,5.47
2023-01-02T08:21:27.892Z,5.73
2023-01-02T08:24:33.576Z,5.77
2023-01-02T08:27:37.560Z,5.73
2023-01-02T08:30:43.138Z,5.50
2023-01-02T08:33:47.864Z,5.10
2023-01-02T08:36:52.621Z,5.80
2023-01-02T08:39:56.244Z,5.60
2023-01-02T08:43:00.621Z,5.27
2023-01-02T08:46:08.072Z,5.83
2023-01-02T08:49:12.463Z,4.80
2023-01-02T08:52:16.213Z,5.47
2023-01-02T08:55:19.899Z,4.97
2023-01-02T08:58:23.564Z,5.10
2023-01-02T09:01:31.236Z,4.80
2023-01-02T09:04:34.970Z,4.80
2023-01-02T09:07:38.689Z,5.17
2023-01-02T09:10:42.676Z,5.07
2023-01-02T09:13:47.094Z,5.57
2023-01-02T09:16:53.651Z,5.60
2023-01-02T09:19:57.368Z,4.87
2023-01-02T09:23:00.999Z,4.47
2023-01-02T09:26:07.937Z,4.87
2023-01-02T09:29:13.210Z,4.70
2023-01-02T09:32:19.709Z,4.03
2023-01-02T09:35:23.386Z,4.03
2023-01-02T09:38:27.009Z,4.07
2023-01-02T09:41:38.699Z,4.03
2023-01-02T09:44:47.924Z,3.77
2023-01-02T09:47:57.518Z,3.87
2023-01-02T09:51:07.589Z,3.50
2023-01-02T09:54:23.721Z,3.50
2023-01-02T09:57:46.146Z,3.47
2023-01-02T10:00:52.595Z,3.67
2023-01-02T10:04:15.425Z,3.80
2023-01-02T10:07:30.120Z,3.50
2023-01-02T10:10:41.709Z,2.30
2023-01-02T10:17:21.135Z,2.23
2023-01-02T10:20:34.745Z,2.83
2023-01-02T10:23:46.338Z,2.83
2023-01-02T10:26:54.695Z,2.53
2023-01-02T10:30:15.922Z,3.17
2023-01-02T10:33:27.474Z,2.10
2023-01-02T10:36:39.314Z,1.80
2023-01-02T10:39:45.018Z,1.47
2023-01-02T10:42:59.431Z,1.23
2023-01-02T10:46:06.041Z,1.60
2023-01-02T10:49:13.442Z,1.63
2023-01-02T10:52:27.794Z,1.73
2023-01-02T10:55:35.355Z,1.47
2023-01-02T10:58:49.099Z,1.10
2023-01-02T11:01:55.937Z,1.03
2023-01-02T11:05:04.931Z,0.70
2023-01-02T11:08:16.714Z,0.70
2023-01-02T11:11:22.080Z,0.73
2023-01-02T11:14:32.352Z,1.10
2023-01-02T11:17:44.831Z,0.90
2023-01-02T11:20:54.604Z,1.00
2023-01-02T11:24:07.849Z,1.00
2023-01-02T11:27:11.558Z,0.90
2023-01-02T11:30:36.451Z,1.07
2023-01-02T11:33:40.282Z,1.00
2023-01-02T11:36:45.911Z,1.00
2023-01-02T11:40:02.584Z,1.23
2023-01-02T11:43:30.888Z,0.90
2023-01-02T11:46:39.303Z,0.90
2023-01-02T11:49:49.698Z,1.00
2023-01-02T11:53:01.895Z,1.10
2023-01-02T11:56:16.879Z,0.90
2023-01-02T11:59:26.053Z,1.00
2023-01-02T12:02:40.821Z,0.90
2023-01-02T12:06:01.168Z,0.90
2023-01-02T12:09:12.369Z,0.80
2023-01-02T12:12:49.407Z,0.77
2023-01-02T12:16:19.925Z,0.97
2023-01-02T12:19:43.662Z,0.70
2023-01-02T12:23:45.126Z,0.93
2023-01-02T12:27:00.136Z,0.80
2023-01-02T12:30:13.117Z,1.17
2023-01-02T12:33:46.968Z,1.00
2023-01-02T12:37:11.278Z,1.37
2023-01-02T12:40:40.714Z,1.37
2023-01-02T12:44:17.169Z,1.43
2023-01-02T12:47:52.731Z,1.13
2023-01-02T12:51:14.262Z,1.20
2023-01-02T12:54:51.199Z,1.00
2023-01-02T12:58:03.985Z,0.90
2023-01-02T13:01:22.502Z,0.87
2023-01-02T13:04:33.953Z,1.27
2023-01-02T13:07:46.856Z,1.10
2023-01-02T13:10:52.405Z,0.97
2023-01-02T13:13:58.139Z,1.00
2023-01-02T13:17:26.432Z,0.93
2023-01-02T13:20:46.761Z,0.80
2023-01-02T13:23:52.749Z,1.20
2023-01-02T13:27:00.164Z,1.30
2023-01-02T13:30:04.311Z,1.07
2023-01-02T13:33:29.187Z,1.00
2023-01-02T13:36:42.171Z,1.23
2023-01-02T13:39:51.407Z,1.10
2023-01-02T13:43:03.614Z,1.07
2023-01-02T13:46:07.608Z,1.17
2023-01-02T13:49:20.421Z,1.00
2023-01-02T13:52:25.745Z,0.90
2023-01-02T13:55:34.044Z,1.17
2023-01-02T13:58:53.687Z,1.50
2023-01-02T14:02:20.925Z,1.50
2023-01-02T14:06:01.066Z,1.70
2023-01-02T14:09:15.376Z,1.27
2023-01-02T14:12:20.064Z,1.60
2023-01-02T14:15:27.732Z,1.67
2023-01-02T14:18:31.810Z,1.63
2023-01-02T14:21:40.486Z,1.53
2023-01-02T14:24:49.320Z,1.80
2023-01-02T14:27:57.837Z,1.67
2023-01-02T14:31:21.506Z,1.57
2023-01-02T14:34:28.063Z,1.70
2023-01-02T14:37:40.275Z,1.97
2023-01-02T14:40:47.590Z,2.20
2023-01-02T14:43:52.075Z,2.10
2023-01-02T14:46:58.295Z,1.53
2023-01-02T14:50:06.936Z,1.50
2023-01-02T14:53:20.644Z,1.63
2023-01-02T14:56:35.095Z,1.00
2023-01-02T14:59:43.848Z,1.23
2023-01-02T15:02:52.168Z,1.20
2023-01-02T15:06:00.856Z,1.20
2023-01-02T15:09:14.021Z,1.20
2023-01-02T15:12:44.149Z,1.10
2023-01-02T15:15:53.562Z,1.47
2023-01-02T15:19:01.149Z,1.90
2023-01-02T15:22:11.995Z,1.50
2023-01-02T15:25:31.606Z,1.23
2023-01-02T15:28:36.675Z,1.40
2023-01-02T15:31:42.309Z,1.63
2023-01-02T15:34:46.043Z,1.77
2023-01-02T15:37:52.021Z,1.80
2023-01-02T15:40:58.170Z,2.17
2023-01-02T15:44:20.594Z,1.97
2023-01-02T15:47:28.182Z,2.53
2023-01-02T15:50:34.119Z,3.00
2023-01-02T15:53:42.873Z,2.67
2023-01-02T15:56:46.725Z,3.50
2023-01-02T15:59:51.829Z,2.90
2023-01-02T16:02:55.587Z,2.83
2023-01-02T16:06:07.198Z,3.43
2023-01-02T16:09:24.662Z,3.47
2023-01-02T16:12:28.324Z,3.70
2023-01-02T16:15:36.984Z,3.43
2023-01-02T16:18:45.157Z,3.60
2023-01-02T16:21:52.590Z,3.37
2023-01-02T16:25:06.229Z,4.50
2023-01-02T16:28:35.225Z,3.97
2023-01-02T16:31:56.623Z,4.33
2023-01-02T16:35:03.843Z,3.63
2023-01-02T16:38:22.233Z,3.50
2023-01-02T16:42:16.236Z,3.07
2023-01-02T16:45:20.295Z,3.37
2023-01-02T16:48:29.973Z,3.83
2023-01-02T16:51:34.160Z,3.63
2023-01-02T16:54:38.088Z,4.00
2023-01-02T16:57:41.729Z,3.70
2023-01-02T17:00:45.586Z,4.23
2023-01-02T17:03:50.636Z,4.20
2023-01-02T17:06:55.193Z,4.80
2023-01-02T17:09:58.813Z,4.80
2023-01-02T17:13:02.676Z,5.03
2023-01-02T17:16:07.919Z,5.57
2023-01-02T17:19:12.973Z,5.07
2023-01-02T17:22:16.707Z,4.50
2023-01-02T17:25:20.449Z,4.90
2023-01-02T17:28:24.185Z,5.10
2023-01-02T17:31:28.509Z,4.90
2023-01-02T17:34:34.607Z,5.10
2023-01-02T17:37:39.314Z,4.80
2023-01-02T17:40:43.037Z,5.40
2023-01-02T17:44:01.826Z,5.20
2023-01-02T17:50:33.603Z,5.73
2023-01-02T17:53:38.431Z,5.60
2023-01-02T17:56:42.052Z,5.80
2023-01-02T17:59:45.919Z,5.60
2023-01-02T18:02:49.677Z,6.73
2023-01-02T18:05:54.944Z,6.60
2023-01-02T18:08:58.644Z,6.03
2023-01-02T18:12:02.382Z,6.37
2023-01-02T18:15:15.775Z,7.90
2023-01-02T18:18:24.093Z,7.03
2023-01-02T18:21:35.672Z,7.50
2023-01-02T18:24:39.344Z,7.30
2023-01-02T18:27:42.957Z,6.80
2023-01-02T18:30:46.789Z,7.23
2023-01-02T18:33:51.865Z,4.80
2023-01-02T18:36:58.929Z,3.63
2023-01-02T18:40:02.622Z,3.30
2023-01-02T18:43:24.434Z,3.03
2023-01-02T18:47:03.438Z,2.77
2023-01-02T18:50:24.584Z,2.60
2023-01-02T18:53:38.311Z,2.40
2023-01-02T18:56:42.433Z,2.40
2023-01-02T18:59:49.073Z,2.33
2023-01-02T19:02:59.828Z,2.10
2023-01-02T19:06:03.558Z,2.00
2023-01-02T19:09:18.376Z,2.20
2023-01-02T19:12:46.404Z,1.73
2023-01-02T19:15:53.823Z,2.23
2023-01-02T19:18:57.589Z,2.70
2023-01-02T19:22:02.446Z,2.30
2023-01-02T19:25:20.114Z,2.63
2023-01-02T19:28:29.230Z,2.00
2023-01-02T19:31:43.186Z,2.33
2023-01-02T19:34:50.358Z,2.53
2023-01-02T19:37:54.189Z,1.93
2023-01-02T19:41:00.970Z,2.97
2023-01-02T19:44:06.561Z,2.50
2023-01-02T19:47:10.277Z,2.77
2023-01-02T19:50:18.494Z,2.70
2023-01-02T19:53:22.185Z,3.10
2023-01-02T19:56:27.468Z,2.80
2023-01-02T19:59:31.213Z,2.73
2023-01-02T20:02:35.185Z,3.33
2023-01-02T20:05:39.754Z,3.43
2023-01-02T20:08:44.496Z,3.50
2023-01-02T20:12:07.870Z,3.70
2023-01-02T20:15:31.758Z,3.53
2023-01-02T20:18:35.514Z,4.50
2023-01-02T20:21:40.996Z,4.13
2023-01-02T20:24:44.641Z,4.07
2023-01-02T20:27:49.794Z,4.17
2023-01-02T20:30:53.602Z,4.77
2023-01-02T20:33:57.423Z,3.87
2023-01-02T20:37:01.125Z,4.13
2023-01-02T20:40:05.268Z,4.80
2023-01-02T20:43:10.304Z,4.43
2023-01-02T20:46:14.101Z,4.53
2023-01-02T20:49:17.877Z,4.20
2023-01-02T20:52:22.682Z,4.30
2023-01-02T20:55:26.737Z,4.63
2023-01-02T20:58:31.869Z,3.80
2023-01-02T21:01:35.678Z,3.93
2023-01-02T21:04:39.587Z,4.40
2023-01-02T21:07:43.343Z,3.83
2023-01-02T21:10:47.190Z,4.33
2023-01-02T21:13:52.960Z,4.90
2023-01-02T21:16:58.712Z,4.20
2023-01-02T21:20:02.316Z,4.03
2023-01-02T21:23:06.735Z,3.30
2023-01-02T21:26:14.441Z,3.93
2023-01-02T21:29:19.738Z,4.00
2023-01-02T21:32:23.543Z,3.40
2023-01-02T21:35:27.840Z,4.50
2023-01-02T21:38:31.972Z,3.63
2023-01-02T21:41:58.068Z,3.37
2023-01-02T21:45:03.104Z,3.30
2023-01-02T21:48:08.593Z,3.63
2023-01-02T21:51:13.833Z,3.87
2023-01-02T21:54:17.507Z,3.87
2023-01-02T21:57:38.660Z,3.53
2023-01-02T22:00:46.239Z,4.00
2023-01-02T22:03:50.029Z,3.13
2023-01-02T22:10:18.367Z,3.37
2023-01-02T22:13:22.180Z,3.90
2023-01-02T22:16:27.400Z,4.30
2023-01-02T22:19:32.061Z,4.20
2023-01-02T22:22:35.738Z,3.87
2023-01-02T22:25:39.472Z,3.10
2023-01-02T22:28:43.555Z,4.10
2023-01-02T22:31:49.843Z,3.30
2023-01-02T22:34:54.407Z,4.00
2023-01-02T22:37:59.618Z,4.07
2023-01-02T22:41:03.725Z,4.00
2023-01-02T22:44:12.690Z,3.67
2023-01-02T22:47:25.308Z,4.33
2023-01-02T22:50:38.287Z,4.27
2023-01-02T22:53:42.378Z,3.43
2023-01-02T22:56:46.136Z,3.73
2023-01-02T22:59:49.803Z,4.30
2023-01-02T23:02:54.996Z,4.10
2023-01-02T23:05:59.372Z,3.53
2023-01-02T23:09:03.076Z,3.43
2023-01-02T23:12:07.394Z,3.10
2023-01-02T23:15:14.577Z,3.10
2023-01-02T23:18:36.354Z,4.13
2023-01-02T23:21:42.165Z,4.90
2023-01-02T23:24:45.894Z,4.57
2023-01-02T23:27:49.998Z,4.70
2023-01-02T23:30:53.667Z,4.30
2023-01-02T23:33:58.739Z,4.30
2023-01-02T23:37:02.792Z,3.57
2023-01-02T23:40:08.093Z,3.60
2023-01-02T23:43:11.744Z,3.60
2023-01-02T23:46:15.538Z,4.20
2023-01-02T23:49:20.915Z,3.80
2023-01-02T23:52:24.700Z,3.50
2023-01-02T23:55:30.699Z,3.80
2023-01-02T23:58:34.389Z,3.37
